sensor_id;sensor_type;location;lat;lon;timestamp;pressure;altitude;pressure_sealevel;temperature;humidity
48115;BME280;33903;44.704;10.448;2024-03-02T00:02:44;99425.44;;;15.59;93.22
48115;BME280;33903;44.704;10.448;2024-03-02T00:05:50;99415.91;;;15.63;92.68
48115;BME280;33903;44.704;10.448;2024-03-02T00:08:58;99419.84;;;15.61;93.26
48115;BME280;33903;44.704;10.448;2024-03-02T00:12:03;99429.72;;;15.69;92.96
48115;BME280;33903;44.704;10.448;2024-03-02T00:15:40;99425.91;;;15.63;93.06
48115;BME280;33903;44.704;10.448;2024-03-02T00:18:47;99427.47;;;15.72;93.12
48115;BME280;33903;44.704;10.448;2024-03-02T00:21:52;99434.44;;;15.81;92.46
48115;BME280;33903;44.704;10.448;2024-03-02T00:24:56;99432.19;;;15.49;93.83
48115;BME280;33903;44.704;10.448;2024-03-02T00:28:02;99431.00;;;15.73;92.95
48115;BME280;33903;44.704;10.448;2024-03-02T00:31:08;99435.97;;;16.05;91.09
48115;BME280;33903;44.704;10.448;2024-03-02T00:34:13;99440.63;;;16.32;90.14
48115;BME280;33903;44.704;10.448;2024-03-02T00:37:20;99441.19;;;16.27;89.94
48115;BME280;33903;44.704;10.448;2024-03-02T00:40:27;99437.00;;;16.25;90.05
48115;BME280;33903;44.704;10.448;2024-03-02T00:43:43;99442.38;;;16.18;90.29
48115;BME280;33903;44.704;10.448;2024-03-02T00:46:49;99444.28;;;16.03;90.99
48115;BME280;33903;44.704;10.448;2024-03-02T00:49:54;99439.63;;;15.97;90.98
48115;BME280;33903;44.704;10.448;2024-03-02T00:52:58;99436.28;;;15.95;91.60
48115;BME280;33903;44.704;10.448;2024-03-02T00:56:02;99439.50;;;16.05;91.48
48115;BME280;33903;44.704;10.448;2024-03-02T00:59:07;99439.78;;;16.10;91.04
48115;BME280;33903;44.704;10.448;2024-03-02T01:02:13;99442.94;;;16.35;89.68
48115;BME280;33903;44.704;10.448;2024-03-02T01:05:18;99444.16;;;16.33;89.49
48115;BME280;33903;44.704;10.448;2024-03-02T01:08:24;99451.19;;;16.06;91.02
48115;BME280;33903;44.704;10.448;2024-03-02T01:11:29;99438.16;;;15.80;92.69
48115;BME280;33903;44.704;10.448;2024-03-02T01:14:34;99448.00;;;15.67;93.39
48115;BME280;33903;44.704;10.448;2024-03-02T01:17:39;99444.28;;;15.53;93.34
48115;BME280;33903;44.704;10.448;2024-03-02T01:20:44;99443.06;;;15.70;92.98
48115;BME280;33903;44.704;10.448;2024-03-02T01:23:48;99445.44;;;15.94;91.59
48115;BME280;33903;44.704;10.448;2024-03-02T01:26:53;99448.03;;;15.52;93.45
48115;BME280;33903;44.704;10.448;2024-03-02T01:29:58;99442.44;;;15.53;93.42
48115;BME280;33903;44.704;10.448;2024-03-02T01:33:04;99439.25;;;15.65;93.12
48115;BME280;33903;44.704;10.448;2024-03-02T01:36:09;99446.63;;;15.56;93.17
48115;BME280;33903;44.704;10.448;2024-03-02T01:39:14;99441.31;;;15.63;93.39
48115;BME280;33903;44.704;10.448;2024-03-02T01:42:18;99437.63;;;15.85;91.62
48115;BME280;33903;44.704;10.448;2024-03-02T01:45:23;99444.91;;;15.84;92.33
48115;BME280;33903;44.704;10.448;2024-03-02T01:48:28;99443.84;;;15.85;92.28
48115;BME280;33903;44.704;10.448;2024-03-02T01:51:32;99439.91;;;15.67;93.32
48115;BME280;33903;44.704;10.448;2024-03-02T01:54:37;99446.16;;;15.67;92.74
48115;BME280;33903;44.704;10.448;2024-03-02T01:57:42;99440.09;;;15.65;92.95
48115;BME280;33903;44.704;10.448;2024-03-02T02:00:49;99438.94;;;15.74;92.24
48115;BME280;33903;44.704;10.448;2024-03-02T02:03:55;99449.41;;;15.77;92.50
48115;BME280;33903;44.704;10.448;2024-03-02T02:07:00;99441.97;;;15.50;93.18
48115;BME280;33903;44.704;10.448;2024-03-02T02:10:04;99443.06;;;15.70;92.65
48115;BME280;33903;44.704;10.448;2024-03-02T02:13:09;99446.38;;;15.87;92.18
48115;BME280;33903;44.704;10.448;2024-03-02T02:16:14;99443.31;;;16.11;90.24
48115;BME280;33903;44.704;10.448;2024-03-02T02:19:18;99436.13;;;15.82;91.57
48115;BME280;33903;44.704;10.448;2024-03-02T02:22:23;99425.84;;;15.78;92.01
48115;BME280;33903;44.704;10.448;2024-03-02T02:25:28;99431.84;;;15.73;91.77
48115;BME280;33903;44.704;10.448;2024-03-02T02:28:32;99432.91;;;15.72;91.86
48115;BME280;33903;44.704;10.448;2024-03-02T02:31:41;99428.09;;;15.89;91.59
48115;BME280;33903;44.704;10.448;2024-03-02T02:34:46;99428.03;;;16.03;91.18
48115;BME280;33903;44.704;10.448;2024-03-02T02:37:51;99430.69;;;15.46;92.93
48115;BME280;33903;44.704;10.448;2024-03-02T02:40:56;99422.34;;;15.77;91.68
48115;BME280;33903;44.704;10.448;2024-03-02T02:44:00;99423.63;;;15.81;91.96
48115;BME280;33903;44.704;10.448;2024-03-02T02:47:05;99424.53;;;15.88;90.93
48115;BME280;33903;44.704;10.448;2024-03-02T02:50:11;99415.81;;;15.72;90.74
48115;BME280;33903;44.704;10.448;2024-03-02T02:53:15;99415.53;;;15.67;91.97
48115;BME280;33903;44.704;10.448;2024-03-02T02:56:20;99422.25;;;15.71;91.95
48115;BME280;33903;44.704;10.448;2024-03-02T02:59:24;99420.34;;;15.50;92.77
48115;BME280;33903;44.704;10.448;2024-03-02T03:02:29;99426.38;;;15.37;93.28
48115;BME280;33903;44.704;10.448;2024-03-02T03:05:34;99427.59;;;15.35;93.05
48115;BME280;33903;44.704;10.448;2024-03-02T03:08:38;99418.34;;;15.44;93.09
48115;BME280;33903;44.704;10.448;2024-03-02T03:11:43;99421.16;;;15.21;93.87
48115;BME280;33903;44.704;10.448;2024-03-02T03:14:48;99418.16;;;15.31;93.31
48115;BME280;33903;44.704;10.448;2024-03-02T03:17:53;99422.63;;;15.38;93.36
48115;BME280;33903;44.704;10.448;2024-03-02T03:20:57;99429.53;;;15.26;93.65
48115;BME280;33903;44.704;10.448;2024-03-02T03:24:02;99425.56;;;15.22;94.31
48115;BME280;33903;44.704;10.448;2024-03-02T03:27:06;99425.09;;;15.48;92.25
48115;BME280;33903;44.704;10.448;2024-03-02T03:30:11;99429.53;;;15.55;91.71
48115;BME280;33903;44.704;10.448;2024-03-02T03:33:15;99425.41;;;15.74;91.03
48115;BME280;33903;44.704;10.448;2024-03-02T03:36:20;99427.75;;;15.77;91.38
48115;BME280;33903;44.704;10.448;2024-03-02T03:39:24;99432.38;;;15.83;91.02
48115;BME280;33903;44.704;10.448;2024-03-02T03:42:29;99431.50;;;15.61;91.79
48115;BME280;33903;44.704;10.448;2024-03-02T03:45:33;99431.81;;;15.52;92.50
48115;BME280;33903;44.704;10.448;2024-03-02T03:48:38;99434.31;;;15.53;92.12
48115;BME280;33903;44.704;10.448;2024-03-02T03:51:43;99442.22;;;15.11;93.67
48115;BME280;33903;44.704;10.448;2024-03-02T03:54:47;99439.25;;;15.35;93.00
48115;BME280;33903;44.704;10.448;2024-03-02T03:57:52;99443.72;;;15.43;92.16
48115;BME280;33903;44.704;10.448;2024-03-02T04:00:56;99444.41;;;15.45;92.38
48115;BME280;33903;44.704;10.448;2024-03-02T04:04:04;99450.72;;;15.37;92.62
48115;BME280;33903;44.704;10.448;2024-03-02T04:07:08;99446.81;;;15.54;91.76
48115;BME280;33903;44.704;10.448;2024-03-02T04:10:13;99451.59;;;15.88;90.18
48115;BME280;33903;44.704;10.448;2024-03-02T04:13:17;99453.47;;;15.88;90.20
48115;BME280;33903;44.704;10.448;2024-03-02T04:16:22;99450.16;;;15.71;90.79
48115;BME280;33903;44.704;10.448;2024-03-02T04:19:26;99461.09;;;15.99;89.47
48115;BME280;33903;44.704;10.448;2024-03-02T04:22:33;99461.34;;;15.53;91.65
48115;BME280;33903;44.704;10.448;2024-03-02T04:25:38;99466.94;;;14.93;94.01
48115;BME280;33903;44.704;10.448;2024-03-02T04:28:42;99466.69;;;15.47;91.98
48115;BME280;33903;44.704;10.448;2024-03-02T04:31:47;99470.09;;;15.12;93.29
48115;BME280;33903;44.704;10.448;2024-03-02T04:34:51;99472.03;;;14.51;94.82
48115;BME280;33903;44.704;10.448;2024-03-02T04:37:56;99471.28;;;14.57;96.37
48115;BME280;33903;44.704;10.448;2024-03-02T04:41:00;99469.22;;;14.96;94.58
48115;BME280;33903;44.704;10.448;2024-03-02T04:44:05;99471.84;;;15.05;94.49
48115;BME280;33903;44.704;10.448;2024-03-02T04:47:12;99479.03;;;14.97;93.88
48115;BME280;33903;44.704;10.448;2024-03-02T04:50:17;99475.50;;;15.12;93.90
48115;BME280;33903;44.704;10.448;2024-03-02T04:53:21;99472.41;;;15.00;93.77
48115;BME280;33903;44.704;10.448;2024-03-02T04:56:26;99476.28;;;15.35;92.39
48115;BME280;33903;44.704;10.448;2024-03-02T04:59:36;99469.81;;;15.21;93.04
48115;BME280;33903;44.704;10.448;2024-03-02T05:02:40;99478.50;;;15.31;92.54
48115;BME280;33903;44.704;10.448;2024-03-02T05:05:44;99480.63;;;15.36;92.39
48115;BME280;33903;44.704;10.448;2024-03-02T05:08:49;99486.16;;;15.13;92.68
48115;BME280;33903;44.704;10.448;2024-03-02T05:11:53;99490.78;;;15.05;93.63
48115;BME280;33903;44.704;10.448;2024-03-02T05:15:15;99488.56;;;15.08;93.47
48115;BME280;33903;44.704;10.448;2024-03-02T05:18:19;99491.66;;;15.20;93.06
48115;BME280;33903;44.704;10.448;2024-03-02T05:21:24;99492.44;;;14.91;93.78
48115;BME280;33903;44.704;10.448;2024-03-02T05:24:29;99495.69;;;15.01;93.49
48115;BME280;33903;44.704;10.448;2024-03-02T05:27:33;99495.63;;;15.09;92.97
48115;BME280;33903;44.704;10.448;2024-03-02T05:30:37;99511.56;;;15.04;93.23
48115;BME280;33903;44.704;10.448;2024-03-02T05:33:43;99504.84;;;15.00;93.52
48115;BME280;33903;44.704;10.448;2024-03-02T05:36:47;99506.66;;;15.22;92.41
48115;BME280;33903;44.704;10.448;2024-03-02T05:39:52;99501.31;;;14.99;93.35
48115;BME280;33903;44.704;10.448;2024-03-02T05:42:57;99510.09;;;15.31;91.65
48115;BME280;33903;44.704;10.448;2024-03-02T05:46:02;99510.84;;;15.25;92.55
48115;BME280;33903;44.704;10.448;2024-03-02T05:49:07;99525.44;;;15.53;91.11
48115;BME280;33903;44.704;10.448;2024-03-02T05:52:14;99524.50;;;15.46;91.25
48115;BME280;33903;44.704;10.448;2024-03-02T05:55:19;99533.78;;;15.29;91.66
48115;BME280;33903;44.704;10.448;2024-03-02T05:58:23;99525.03;;;14.89;92.88
48115;BME280;33903;44.704;10.448;2024-03-02T06:01:50;99531.00;;;15.37;91.80
48115;BME280;33903;44.704;10.448;2024-03-02T06:04:56;99537.25;;;14.85;93.28
48115;BME280;33903;44.704;10.448;2024-03-02T06:08:00;99537.34;;;15.29;92.52
48115;BME280;33903;44.704;10.448;2024-03-02T06:11:05;99540.66;;;15.17;92.66
48115;BME280;33903;44.704;10.448;2024-03-02T06:14:10;99535.38;;;15.23;92.38
48115;BME280;33903;44.704;10.448;2024-03-02T06:17:15;99545.66;;;15.28;92.10
48115;BME280;33903;44.704;10.448;2024-03-02T06:20:19;99544.16;;;15.40;91.36
48115;BME280;33903;44.704;10.448;2024-03-02T06:23:27;99546.44;;;15.14;92.39
48115;BME280;33903;44.704;10.448;2024-03-02T06:26:32;99552.00;;;15.35;91.97
48115;BME280;33903;44.704;10.448;2024-03-02T06:29:36;99547.94;;;15.31;91.40
48115;BME280;33903;44.704;10.448;2024-03-02T06:32:41;99554.03;;;15.33;91.63
48115;BME280;33903;44.704;10.448;2024-03-02T06:35:45;99557.53;;;15.19;91.84
48115;BME280;33903;44.704;10.448;2024-03-02T06:38:50;99563.75;;;15.42;91.44
48115;BME280;33903;44.704;10.448;2024-03-02T06:41:55;99566.34;;;15.21;91.69
48115;BME280;33903;44.704;10.448;2024-03-02T06:45:00;99572.38;;;15.45;91.25
48115;BME280;33903;44.704;10.448;2024-03-02T06:48:05;99569.19;;;15.19;91.92
48115;BME280;33903;44.704;10.448;2024-03-02T06:51:09;99575.75;;;15.25;91.95
48115;BME280;33903;44.704;10.448;2024-03-02T06:54:14;99583.97;;;15.09;92.22
48115;BME280;33903;44.704;10.448;2024-03-02T06:57:20;99576.06;;;15.07;92.09
48115;BME280;33903;44.704;10.448;2024-03-02T07:00:25;99571.03;;;15.04;92.65
48115;BME280;33903;44.704;10.448;2024-03-02T07:03:29;99590.78;;;15.05;93.35
48115;BME280;33903;44.704;10.448;2024-03-02T07:06:34;99586.22;;;15.42;91.77
48115;BME280;33903;44.704;10.448;2024-03-02T07:09:39;99587.97;;;15.21;92.31
48115;BME280;33903;44.704;10.448;2024-03-02T07:12:44;99595.97;;;15.51;91.10
48115;BME280;33903;44.704;10.448;2024-03-02T07:15:49;99592.03;;;15.54;91.15
48115;BME280;33903;44.704;10.448;2024-03-02T07:19:12;99603.16;;;15.59;89.94
48115;BME280;33903;44.704;10.448;2024-03-02T07:22:17;99596.91;;;15.73;89.49
48115;BME280;33903;44.704;10.448;2024-03-02T07:25:22;99612.84;;;15.68;90.09
48115;BME280;33903;44.704;10.448;2024-03-02T07:28:27;99610.31;;;15.52;90.07
48115;BME280;33903;44.704;10.448;2024-03-02T07:31:32;99614.66;;;14.78;93.49
48115;BME280;33903;44.704;10.448;2024-03-02T07:34:38;99621.59;;;14.73;93.84
48115;BME280;33903;44.704;10.448;2024-03-02T07:37:42;99634.19;;;14.19;96.08
48115;BME280;33903;44.704;10.448;2024-03-02T07:40:48;99624.53;;;14.32;96.84
48115;BME280;33903;44.704;10.448;2024-03-02T07:43:55;99640.78;;;14.16;97.44
48115;BME280;33903;44.704;10.448;2024-03-02T07:47:00;99637.88;;;14.18;96.96
48115;BME280;33903;44.704;10.448;2024-03-02T07:50:05;99640.00;;;14.00;98.10
48115;BME280;33903;44.704;10.448;2024-03-02T07:53:11;99639.81;;;14.48;96.46
48115;BME280;33903;44.704;10.448;2024-03-02T07:56:16;99647.94;;;14.40;96.64
48115;BME280;33903;44.704;10.448;2024-03-02T07:59:26;99646.53;;;14.52;96.24
48115;BME280;33903;44.704;10.448;2024-03-02T08:02:31;99652.19;;;14.65;95.96
48115;BME280;33903;44.704;10.448;2024-03-02T08:05:35;99645.84;;;14.58;96.76
48115;BME280;33903;44.704;10.448;2024-03-02T08:08:40;99651.81;;;14.46;96.75
48115;BME280;33903;44.704;10.448;2024-03-02T08:11:45;99654.84;;;14.43;96.70
48115;BME280;33903;44.704;10.448;2024-03-02T08:14:50;99651.84;;;15.14;93.45
48115;BME280;33903;44.704;10.448;2024-03-02T08:17:55;99655.59;;;15.13;93.56
48115;BME280;33903;44.704;10.448;2024-03-02T08:21:00;99655.59;;;15.35;92.02
48115;BME280;33903;44.704;10.448;2024-03-02T08:24:05;99660.38;;;14.80;95.45
48115;BME280;33903;44.704;10.448;2024-03-02T08:27:10;99669.56;;;15.39;91.97
48115;BME280;33903;44.704;10.448;2024-03-02T08:30:15;99663.34;;;15.16;92.81
48115;BME280;33903;44.704;10.448;2024-03-02T08:33:19;99668.38;;;15.41;92.10
48115;BME280;33903;44.704;10.448;2024-03-02T08:36:24;99674.22;;;15.30;91.98
48115;BME280;33903;44.704;10.448;2024-03-02T08:39:28;99672.56;;;15.67;91.59
48115;BME280;33903;44.704;10.448;2024-03-02T08:42:34;99668.38;;;15.79;90.62
48115;BME280;33903;44.704;10.448;2024-03-02T08:45:41;99673.25;;;15.46;92.07
48115;BME280;33903;44.704;10.448;2024-03-02T08:48:46;99675.59;;;15.49;91.90
48115;BME280;33903;44.704;10.448;2024-03-02T08:51:51;99679.56;;;15.61;92.33
48115;BME280;33903;44.704;10.448;2024-03-02T08:54:59;99676.84;;;15.61;91.56
48115;BME280;33903;44.704;10.448;2024-03-02T08:58:04;99676.13;;;15.67;91.06
48115;BME280;33903;44.704;10.448;2024-03-02T09:01:10;99680.22;;;15.40;91.09
48115;BME280;33903;44.704;10.448;2024-03-02T09:04:16;99687.66;;;15.61;90.65
48115;BME280;33903;44.704;10.448;2024-03-02T09:07:21;99681.06;;;15.63;90.83
48115;BME280;33903;44.704;10.448;2024-03-02T09:10:26;99682.00;;;15.71;89.99
48115;BME280;33903;44.704;10.448;2024-03-02T09:13:32;99690.25;;;15.92;89.78
48115;BME280;33903;44.704;10.448;2024-03-02T09:16:38;99681.06;;;15.63;90.45
48115;BME280;33903;44.704;10.448;2024-03-02T09:19:43;99689.13;;;15.86;90.36
48115;BME280;33903;44.704;10.448;2024-03-02T09:22:49;99698.25;;;15.85;90.00
48115;BME280;33903;44.704;10.448;2024-03-02T09:25:53;99693.19;;;16.19;89.30
48115;BME280;33903;44.704;10.448;2024-03-02T09:28:58;99683.50;;;15.88;90.30
48115;BME280;33903;44.704;10.448;2024-03-02T09:32:04;99685.88;;;16.05;89.88
48115;BME280;33903;44.704;10.448;2024-03-02T09:35:10;99683.63;;;16.23;88.72
48115;BME280;33903;44.704;10.448;2024-03-02T09:38:16;99689.53;;;16.42;88.03
48115;BME280;33903;44.704;10.448;2024-03-02T09:41:21;99692.22;;;16.42;88.42
48115;BME280;33903;44.704;10.448;2024-03-02T09:44:26;99694.47;;;16.23;88.83
48115;BME280;33903;44.704;10.448;2024-03-02T09:47:30;99688.28;;;16.29;89.21
48115;BME280;33903;44.704;10.448;2024-03-02T09:50:35;99697.75;;;16.19;88.10
48115;BME280;33903;44.704;10.448;2024-03-02T09:53:40;99698.94;;;16.31;87.89
48115;BME280;33903;44.704;10.448;2024-03-02T09:56:44;99702.97;;;16.64;87.04
48115;BME280;33903;44.704;10.448;2024-03-02T09:59:49;99699.47;;;16.85;85.92
48115;BME280;33903;44.704;10.448;2024-03-02T10:02:53;99699.63;;;17.55;83.90
48115;BME280;33903;44.704;10.448;2024-03-02T10:09:31;99715.06;;;17.54;81.66
48115;BME280;33903;44.704;10.448;2024-03-02T10:12:36;99720.31;;;17.20;82.79
48115;BME280;33903;44.704;10.448;2024-03-02T10:15:41;99716.59;;;17.07;83.51
48115;BME280;33903;44.704;10.448;2024-03-02T10:18:45;99713.34;;;17.32;81.22
48115;BME280;33903;44.704;10.448;2024-03-02T10:21:51;99716.00;;;16.90;82.47
48115;BME280;33903;44.704;10.448;2024-03-02T10:24:56;99726.75;;;16.98;82.24
48115;BME280;33903;44.704;10.448;2024-03-02T10:28:01;99720.25;;;16.78;83.62
48115;BME280;33903;44.704;10.448;2024-03-02T10:31:06;99720.81;;;16.73;84.65
48115;BME280;33903;44.704;10.448;2024-03-02T10:34:11;99714.19;;;16.61;84.45
48115;BME280;33903;44.704;10.448;2024-03-02T10:37:16;99710.75;;;17.03;84.03
48115;BME280;33903;44.704;10.448;2024-03-02T10:40:23;99710.28;;;17.00;83.57
48115;BME280;33903;44.704;10.448;2024-03-02T10:43:28;99710.66;;;16.97;83.86
48115;BME280;33903;44.704;10.448;2024-03-02T10:46:34;99722.63;;;17.23;82.92
48115;BME280;33903;44.704;10.448;2024-03-02T10:49:41;99723.91;;;17.06;82.41
48115;BME280;33903;44.704;10.448;2024-03-02T10:52:48;99724.63;;;16.64;84.03
48115;BME280;33903;44.704;10.448;2024-03-02T10:55:57;99722.72;;;16.94;83.38
48115;BME280;33903;44.704;10.448;2024-03-02T10:59:34;99726.75;;;17.19;82.87
48115;BME280;33903;44.704;10.448;2024-03-02T11:02:42;99719.69;;;16.68;83.85
48115;BME280;33903;44.704;10.448;2024-03-02T11:05:48;99712.75;;;16.80;84.53
48115;BME280;33903;44.704;10.448;2024-03-02T11:08:55;99717.06;;;16.74;84.45
48115;BME280;33903;44.704;10.448;2024-03-02T11:12:12;99720.13;;;16.86;83.77
48115;BME280;33903;44.704;10.448;2024-03-02T11:15:18;99719.03;;;16.80;83.97
48115;BME280;33903;44.704;10.448;2024-03-02T11:18:26;99720.97;;;16.72;83.66
48115;BME280;33903;44.704;10.448;2024-03-02T11:21:33;99725.19;;;16.74;83.82
48115;BME280;33903;44.704;10.448;2024-03-02T11:24:38;99716.81;;;16.55;84.17
48115;BME280;33903;44.704;10.448;2024-03-02T11:30:50;99707.44;;;17.08;83.17
48115;BME280;33903;44.704;10.448;2024-03-02T11:33:55;99695.75;;;17.28;82.54
48115;BME280;33903;44.704;10.448;2024-03-02T11:37:02;99694.53;;;17.31;82.01
48115;BME280;33903;44.704;10.448;2024-03-02T11:40:09;99697.84;;;17.47;81.36
48115;BME280;33903;44.704;10.448;2024-03-02T11:43:15;99698.22;;;17.23;80.93
48115;BME280;33903;44.704;10.448;2024-03-02T11:46:22;99693.09;;;17.14;81.01
48115;BME280;33903;44.704;10.448;2024-03-02T11:49:43;99692.50;;;16.97;81.70
48115;BME280;33903;44.704;10.448;2024-03-02T11:52:49;99701.81;;;17.09;80.75
48115;BME280;33903;44.704;10.448;2024-03-02T11:55:55;99693.19;;;17.20;79.99
48115;BME280;33903;44.704;10.448;2024-03-02T11:59:00;99690.97;;;17.09;81.29
48115;BME280;33903;44.704;10.448;2024-03-02T12:02:05;99691.81;;;17.31;80.89
48115;BME280;33903;44.704;10.448;2024-03-02T12:05:10;99682.94;;;17.01;80.87
48115;BME280;33903;44.704;10.448;2024-03-02T12:08:20;99686.03;;;17.13;81.60
48115;BME280;33903;44.704;10.448;2024-03-02T12:11:25;99682.97;;;17.22;81.09
48115;BME280;33903;44.704;10.448;2024-03-02T12:14:32;99682.66;;;17.53;80.29
48115;BME280;33903;44.704;10.448;2024-03-02T12:17:37;99682.59;;;17.46;80.53
48115;BME280;33903;44.704;10.448;2024-03-02T12:20:42;99676.84;;;17.77;79.37
48115;BME280;33903;44.704;10.448;2024-03-02T12:23:46;99671.72;;;17.95;79.32
48115;BME280;33903;44.704;10.448;2024-03-02T12:26:51;99673.41;;;17.96;79.71
48115;BME280;33903;44.704;10.448;2024-03-02T12:29:56;99671.00;;;17.80;78.66
48115;BME280;33903;44.704;10.448;2024-03-02T12:33:02;99665.97;;;17.77;77.03
48115;BME280;33903;44.704;10.448;2024-03-02T12:36:10;99669.41;;;17.43;77.89
48115;BME280;33903;44.704;10.448;2024-03-02T12:39:17;99669.09;;;17.53;77.37
48115;BME280;33903;44.704;10.448;2024-03-02T12:42:24;99672.06;;;17.58;77.15
48115;BME280;33903;44.704;10.448;2024-03-02T12:45:29;99662.06;;;17.59;77.74
48115;BME280;33903;44.704;10.448;2024-03-02T12:48:34;99662.94;;;17.93;78.20
48115;BME280;33903;44.704;10.448;2024-03-02T12:51:40;99653.28;;;17.84;77.38
48115;BME280;33903;44.704;10.448;2024-03-02T12:54:45;99650.84;;;17.96;76.56
48115;BME280;33903;44.704;10.448;2024-03-02T12:57:53;99653.28;;;17.84;78.00
48115;BME280;33903;44.704;10.448;2024-03-02T13:01:08;99648.59;;;17.99;78.69
48115;BME280;33903;44.704;10.448;2024-03-02T13:04:13;99651.00;;;17.88;78.52
48115;BME280;33903;44.704;10.448;2024-03-02T13:07:18;99651.22;;;17.86;78.40
48115;BME280;33903;44.704;10.448;2024-03-02T13:10:23;99649.63;;;18.05;77.76
48115;BME280;33903;44.704;10.448;2024-03-02T13:13:31;99637.16;;;18.10;76.78
48115;BME280;33903;44.704;10.448;2024-03-02T13:16:42;99637.22;;;18.24;76.18
48115;BME280;33903;44.704;10.448;2024-03-02T13:19:53;99631.06;;;18.02;75.88
48115;BME280;33903;44.704;10.448;2024-03-02T13:22:59;99637.41;;;17.88;76.41
48115;BME280;33903;44.704;10.448;2024-03-02T13:26:04;99634.78;;;18.01;76.36
48115;BME280;33903;44.704;10.448;2024-03-02T13:29:09;99634.81;;;18.07;77.56
48115;BME280;33903;44.704;10.448;2024-03-02T13:32:14;99629.50;;;17.93;76.39
48115;BME280;33903;44.704;10.448;2024-03-02T13:35:19;99631.50;;;17.78;77.67
48115;BME280;33903;44.704;10.448;2024-03-02T13:38:24;99637.91;;;17.70;77.76
48115;BME280;33903;44.704;10.448;2024-03-02T13:41:29;99635.88;;;17.51;79.23
48115;BME280;33903;44.704;10.448;2024-03-02T13:44:36;99633.88;;;17.60;77.34
48115;BME280;33903;44.704;10.448;2024-03-02T13:47:41;99640.19;;;17.67;77.75
48115;BME280;33903;44.704;10.448;2024-03-02T13:50:45;99633.00;;;17.52;78.05
48115;BME280;33903;44.704;10.448;2024-03-02T13:53:50;99638.00;;;17.55;78.53
48115;BME280;33903;44.704;10.448;2024-03-02T13:56:56;99635.16;;;17.64;78.48
48115;BME280;33903;44.704;10.448;2024-03-02T14:00:02;99632.81;;;17.82;78.62
48115;BME280;33903;44.704;10.448;2024-03-02T14:03:15;99639.88;;;17.83;78.43
48115;BME280;33903;44.704;10.448;2024-03-02T14:06:20;99640.88;;;17.75;78.35
48115;BME280;33903;44.704;10.448;2024-03-02T14:09:25;99644.28;;;18.11;77.90
48115;BME280;33903;44.704;10.448;2024-03-02T14:12:31;99642.47;;;17.91;77.96
48115;BME280;33903;44.704;10.448;2024-03-02T14:15:36;99638.94;;;17.63;78.61
48115;BME280;33903;44.704;10.448;2024-03-02T14:18:43;99643.56;;;17.69;79.42
48115;BME280;33903;44.704;10.448;2024-03-02T14:21:48;99636.75;;;17.79;78.58
48115;BME280;33903;44.704;10.448;2024-03-02T14:24:52;99643.94;;;17.66;79.06
48115;BME280;33903;44.704;10.448;2024-03-02T14:27:57;99639.84;;;17.76;78.19
48115;BME280;33903;44.704;10.448;2024-03-02T14:31:01;99638.84;;;17.56;79.20
48115;BME280;33903;44.704;10.448;2024-03-02T14:34:06;99642.13;;;17.51;79.12
48115;BME280;33903;44.704;10.448;2024-03-02T14:37:11;99647.31;;;17.46;79.68
48115;BME280;33903;44.704;10.448;2024-03-02T14:40:15;99645.88;;;17.50;79.34
48115;BME280;33903;44.704;10.448;2024-03-02T14:43:20;99646.56;;;17.52;78.77
48115;BME280;33903;44.704;10.448;2024-03-02T14:46:24;99645.91;;;17.78;78.20
48115;BME280;33903;44.704;10.448;2024-03-02T14:49:30;99647.38;;;17.74;79.62
48115;BME280;33903;44.704;10.448;2024-03-02T14:52:34;99646.81;;;17.36;80.70
48115;BME280;33903;44.704;10.448;2024-03-02T14:55:40;99646.66;;;17.66;79.90
48115;BME280;33903;44.704;10.448;2024-03-02T14:58:44;99645.63;;;17.67;79.59
48115;BME280;33903;44.704;10.448;2024-03-02T15:01:49;99652.69;;;17.61;78.10
48115;BME280;33903;44.704;10.448;2024-03-02T15:04:54;99645.78;;;17.37;78.89
48115;BME280;33903;44.704;10.448;2024-03-02T15:07:59;99642.03;;;17.17;80.47
48115;BME280;33903;44.704;10.448;2024-03-02T15:11:06;99639.06;;;17.12;80.34
48115;BME280;33903;44.704;10.448;2024-03-02T15:14:11;99639.06;;;16.91;81.39
48115;BME280;33903;44.704;10.448;2024-03-02T15:17:16;99633.75;;;17.46;78.58
48115;BME280;33903;44.704;10.448;2024-03-02T15:20:20;99635.38;;;17.62;78.30
48115;BME280;33903;44.704;10.448;2024-03-02T15:23:26;99641.81;;;17.61;79.47
48115;BME280;33903;44.704;10.448;2024-03-02T15:26:30;99633.50;;;17.41;80.33
48115;BME280;33903;44.704;10.448;2024-03-02T15:29:35;99640.34;;;17.59;79.87
48115;BME280;33903;44.704;10.448;2024-03-02T15:32:40;99638.44;;;17.52;80.16
48115;BME280;33903;44.704;10.448;2024-03-02T15:35:45;99623.28;;;17.43;79.30
48115;BME280;33903;44.704;10.448;2024-03-02T15:38:50;99624.75;;;17.46;79.83
48115;BME280;33903;44.704;10.448;2024-03-02T15:41:54;99628.84;;;17.57;79.33
48115;BME280;33903;44.704;10.448;2024-03-02T15:44:59;99625.22;;;17.28;80.29
48115;BME280;33903;44.704;10.448;2024-03-02T15:48:04;99631.13;;;17.32;80.61
48115;BME280;33903;44.704;10.448;2024-03-02T15:51:09;99635.59;;;17.18;80.84
48115;BME280;33903;44.704;10.448;2024-03-02T15:54:14;99636.28;;;17.27;79.41
48115;BME280;33903;44.704;10.448;2024-03-02T15:57:19;99631.69;;;17.06;81.40
48115;BME280;33903;44.704;10.448;2024-03-02T16:00:24;99626.75;;;17.10;81.27
48115;BME280;33903;44.704;10.448;2024-03-02T16:03:29;99628.03;;;16.92;82.34
48115;BME280;33903;44.704;10.448;2024-03-02T16:06:35;99634.53;;;16.77;82.99
48115;BME280;33903;44.704;10.448;2024-03-02T16:09:40;99635.56;;;16.76;83.95
48115;BME280;33903;44.704;10.448;2024-03-02T16:12:44;99646.19;;;16.56;85.19
48115;BME280;33903;44.704;10.448;2024-03-02T16:15:49;99642.69;;;16.48;85.65
48115;BME280;33903;44.704;10.448;2024-03-02T16:18:54;99656.50;;;16.67;84.65